createdAt,value
2022-08-18T00:00:00.000Z,8.18
2022-08-18T00:15:00.000Z,7.94
2022-08-18T00:30:00.000Z,7.51
2022-08-18T00:45:00.000Z,7.32
2022-08-18T01:00:00.000Z,7.69
2022-08-18T01:15:00.000Z,7.38
2022-08-18T01:30:00.000Z,7.05
2022-08-18T01:45:00.000Z,7.29
2022-08-18T02:15:00.000Z,7.5
2022-08-18T02:15:00.000Z,7.2
2022-08-18T02:30:00.000Z,7.26
2022-08-18T02:45:00.000Z,7.45
2022-08-18T03:00:00.000Z,7.49
2022-08-18T03:15:00.000Z,7.04
2022-08-18T03:30:00.000Z,8.15
2022-08-18T03:45:00.000Z,8.79
2022-08-18T04:00:00.000Z,8.92
2022-08-18T04:15:00.000Z,8.64
2022-08-18T04:30:00.000Z,9.02
2022-08-18T04:45:00.000Z,9.14
2022-08-18T05:00:00.000Z,8.69
2022-08-18T05:15:00.000Z,8.41
2022-08-18T05:30:00.000Z,8.31
2022-08-18T05:45:00.000Z,7.67
2022-08-18T06:00:00.000Z,8.46
2022-08-18T06:15:00.000Z,7.74
2022-08-18T06:30:00.000Z,7.65
2022-08-18T06:45:00.000Z,8.16
2022-08-18T07:00:00.000Z,12.08
2022-08-18T07:15:00.000Z,12.24
2022-08-18T07:30:00.000Z,9.85
2022-08-18T07:45:00.000Z,8.46
2022-08-18T08:00:00.000Z,8.56
2022-08-18T08:15:00.000Z,8.34
2022-08-18T08:30:00.000Z,7.92
2022-08-18T08:45:00.000Z,7.62
2022-08-18T09:00:00.000Z,7.01
2022-08-18T09:15:00.000Z,6.52
2022-08-18T09:30:00.000Z,6.11
2022-08-18T09:45:00.000Z,5.54
2022-08-18T10:00:00.000Z,6.05
2022-08-18T10:15:00.000Z,6.21
2022-08-18T10:30:00.000Z,5.51
2022-08-18T10:45:00.000Z,5.61
2022-08-18T11:00:00.000Z,5.67
2022-08-18T11:15:00.000Z,5.78
2022-08-18T11:30:00.000Z,7.02
2022-08-18T11:45:00.000Z,6.76
2022-08-18T12:00:00.000Z,6.96
2022-08-18T12:15:00.000Z,7.04
2022-08-18T12:30:00.000Z,6.99
2022-08-18T12:45:00.000Z,7.29
2022-08-18T13:00:00.000Z,7.46
2022-08-18T13:15:00.000Z,7.49
2022-08-18T13:30:00.000Z,7.89
2022-08-18T13:45:00.000Z,8.06
2022-08-18T14:00:00.000Z,8.08
2022-08-18T14:15:00.000Z,7.15
2022-08-18T14:30:00.000Z,6.02
2022-08-18T14:45:00.000Z,6.24
2022-08-18T15:00:00.000Z,7.64
2022-08-18T15:15:00.000Z,7.11
2022-08-18T15:30:00.000Z,5.99
2022-08-18T15:45:00.000Z,4.89
2022-08-18T16:00:00.000Z,3.28
2022-08-18T16:15:00.000Z,3.34
2022-08-18T16:30:00.000Z,3.59
2022-08-18T16:45:00.000Z,5.13
2022-08-18T17:00:00.000Z,7.25
2022-08-18T17:15:00.000Z,7.45
2022-08-18T17:30:00.000Z,9.27
2022-08-18T17:45:00.000Z,12.41
2022-08-18T18:00:00.000Z,10.88
2022-08-18T18:15:00.000Z,9.18
2022-08-18T18:30:00.000Z,9.45
2022-08-18T18:45:00.000Z,10.72
2022-08-18T19:00:00.000Z,13.09
2022-08-18T19:15:00.000Z,11.82
2022-08-18T19:30:00.000Z,11.32
2022-08-18T19:45:00.000Z,11.96
2022-08-18T20:00:00.000Z,11.15
2022-08-18T20:15:00.000Z,11.71
2022-08-18T20:30:00.000Z,11.69
2022-08-18T20:45:00.000Z,11.11
2022-08-18T21:00:00.000Z,11
2022-08-18T21:15:00.000Z,10.71
2022-08-18T21:30:00.000Z,9.48
2022-08-18T21:45:00.000Z,8.94
2022-08-18T22:00:00.000Z,10.45
2022-08-18T22:15:00.000Z,9.52
2022-08-18T22:30:00.000Z,9.26
2022-08-18T22:45:00.000Z,9.12
2022-08-18T23:00:00.000Z,8.96
2022-08-18T23:15:00.000Z,9.01
2022-08-18T23:30:00.000Z,8.61
2022-08-18T23:45:00.000Z,8.85
